Time;durP1;ratioP1;P1;durP2;ratioP2;P2;SDS_P1;SDS_P2;PMS_P1;PMS_P2;Temp;Humidity;BMP_temperature;BMP_pressure;BME280_temperature;BME280_humidity;BME280_pressure;Samples;Min_cycle;Max_cycle;Signal;HPM_P1;HPM_P2
2023/01/03 00:00:51;;;;;;;0.60;0.60;;;;;;;;;;5039965;28;88840;-59
2023/01/03 00:03:19;;;;;;;1.57;0.50;;;;;;;;;;5039600;28;88035;-60
2023/01/03 00:05:48;;;;;;;0.83;0.80;;;;;;;;;;5039871;28;87001;-59
2023/01/03 00:08:16;;;;;;;0.50;0.50;;;;;;;;;;5039472;28;89191;-60
2023/01/03 00:10:45;;;;;;;0.67;0.60;;;;;;;;;;5039790;27;87962;-59
2023/01/03 00:13:12;;;;;;;0.50;0.50;;;;;;;;;;5040212;28;87083;-60
2023/01/03 00:15:42;;;;;;;0.83;0.50;;;;;;;;;;5040757;28;87115;-60
2023/01/03 00:18:10;;;;;;;1.53;0.43;;;;;;;;;;5058413;27;88209;-60
2023/01/03 00:20:38;;;;;;;0.67;0.60;;;;;;;;;;5060201;27;88966;-60
2023/01/03 00:23:07;;;;;;;0.80;0.80;;;;;;;;;;5060218;27;87130;-60
2023/01/03 00:25:35;;;;;;;0.70;0.70;;;;;;;;;;5060941;27;87705;-60
2023/01/03 00:28:03;;;;;;;0.60;0.60;;;;;;;;;;5060194;27;88970;-60
2023/01/03 00:30:32;;;;;;;0.60;0.60;;;;;;;;;;5060058;27;89855;-60
2023/01/03 00:33:02;;;;;;;0.43;0.40;;;;;;;;;;5060247;27;87200;-60
2023/01/03 00:35:31;;;;;;;0.70;0.50;;;;;;;;;;5060418;27;87058;-60
2023/01/03 00:37:59;;;;;;;0.93;0.70;;;;;;;;;;5040958;27;89039;-60
2023/01/03 00:40:27;;;;;;;0.53;0.40;;;;;;;;;;5040529;27;87815;-60
2023/01/03 00:45:42;;;;;;;0.60;0.60;;;;;;;;;;5081009;27;86211;-59
2023/01/03 00:48:12;;;;;;;1.03;0.70;;;;;;;;;;5062364;27;88774;-59
2023/01/03 00:50:40;;;;;;;0.43;0.43;;;;;;;;;;5058949;27;89060;-60
2023/01/03 00:53:08;;;;;;;1.07;1.03;;;;;;;;;;5059074;27;87978;-60
2023/01/03 00:55:37;;;;;;;0.70;0.60;;;;;;;;;;5062044;27;87137;-60
2023/01/03 00:58:05;;;;;;;0.80;0.60;;;;;;;;;;5063051;27;89157;-60
2023/01/03 01:00:33;;;;;;;0.60;0.60;;;;;;;;;;5063135;27;88947;-59
2023/01/03 01:03:02;;;;;;;0.80;0.80;;;;;;;;;;5048807;27;86989;-60
2023/01/03 01:05:32;;;;;;;0.50;0.50;;;;;;;;;;5043433;28;87120;-60
2023/01/03 01:08:00;;;;;;;2.23;0.93;;;;;;;;;;5053447;27;89062;-60
2023/01/03 01:10:28;;;;;;;0.60;0.60;;;;;;;;;;5062314;27;88604;-60
2023/01/03 01:12:57;;;;;;;0.50;0.50;;;;;;;;;;5063532;27;87122;-62
2023/01/03 01:15:25;;;;;;;0.50;0.50;;;;;;;;;;5063704;27;87014;-60
2023/01/03 01:17:53;;;;;;;0.60;0.60;;;;;;;;;;5050378;27;90058;-60
2023/01/03 01:20:21;;;;;;;0.80;0.70;;;;;;;;;;5070678;27;89872;-60
2023/01/03 01:22:51;;;;;;;0.37;0.37;;;;;;;;;;5063304;27;86936;-60
2023/01/03 01:25:19;;;;;;;0.63;0.63;;;;;;;;;;5063590;27;86979;-60
2023/01/03 01:27:48;;;;;;;0.40;0.40;;;;;;;;;;5057755;27;88790;-59
2023/01/03 01:30:16;;;;;;;0.50;0.50;;;;;;;;;;5071175;27;88885;-60
2023/01/03 01:32:44;;;;;;;0.80;0.60;;;;;;;;;;5070399;27;87087;-59
2023/01/03 01:35:13;;;;;;;0.83;0.70;;;;;;;;;;5063778;27;86233;-60
2023/01/03 01:37:41;;;;;;;0.90;0.90;;;;;;;;;;5062939;27;87990;-60
2023/01/03 01:40:12;;;;;;;0.70;0.70;;;;;;;;;;5063184;27;88534;-60
2023/01/03 01:45:25;;;;;;;0.80;0.80;;;;;;;;;;5041643;27;87084;-60
2023/01/03 01:47:56;;;;;;;0.60;0.60;;;;;;;;;;5063010;27;88066;-60
2023/01/03 01:50:26;;;;;;;1.70;1.00;;;;;;;;;;5065599;27;88762;-60
2023/01/03 01:52:55;;;;;;;1.40;0.50;;;;;;;;;;5071438;27;87081;-60
2023/01/03 01:55:27;;;;;;;1.20;1.10;;;;;;;;;;5062878;27;86988;-60
2023/01/03 01:57:55;;;;;;;1.23;0.73;;;;;;;;;;5062989;27;89161;-60
2023/01/03 02:00:24;;;;;;;0.50;0.50;;;;;;;;;;5065738;27;87811;-60
2023/01/03 02:02:52;;;;;;;2.77;0.67;;;;;;;;;;5079780;27;87061;-60
2023/01/03 02:05:21;;;;;;;2.10;0.80;;;;;;;;;;5064931;27;87046;-60
2023/01/03 02:07:50;;;;;;;1.27;0.90;;;;;;;;;;5078794;27;89893;-60
2023/01/03 02:10:18;;;;;;;0.50;0.50;;;;;;;;;;5062583;27;88881;-60
2023/01/03 02:13:06;;;;;;;0.83;0.60;;;;;;;;;;5075644;27;87099;-60
2023/01/03 02:15:49;;;;;;;0.50;0.50;;;;;;;;;;5064737;27;86988;-60
2023/01/03 02:18:25;;;;;;;0.80;0.60;;;;;;;;;;5071815;27;88755;-60
2023/01/03 02:20:59;;;;;;;0.77;0.77;;;;;;;;;;5053143;27;89021;-60
2023/01/03 02:23:36;;;;;;;0.60;0.60;;;;;;;;;;5043052;27;87125;-60
2023/01/03 02:26:28;;;;;;;0.50;0.50;;;;;;;;;;5061580;27;86332;-59
2023/01/03 02:29:11;;;;;;;0.67;0.43;;;;;;;;;;5062764;27;89274;-60
2023/01/03 02:31:42;;;;;;;0.37;0.37;;;;;;;;;;5041934;27;87150;-59
2023/01/03 02:34:12;;;;;;;1.47;0.40;;;;;;;;;;5042373;27;88011;-59
2023/01/03 02:36:41;;;;;;;0.77;0.63;;;;;;;;;;5051658;27;87043;-59
2023/01/03 02:39:11;;;;;;;0.77;0.60;;;;;;;;;;5061749;27;89200;-60
2023/01/03 02:41:41;;;;;;;0.63;0.50;;;;;;;;;;5061383;27;88896;-60
2023/01/03 02:44:11;;;;;;;0.70;0.70;;;;;;;;;;5061768;27;87151;-60
2023/01/03 02:46:41;;;;;;;0.53;0.53;;;;;;;;;;5059670;27;87075;-60
2023/01/03 02:49:09;;;;;;;0.60;0.60;;;;;;;;;;5041306;27;88994;-60
2023/01/03 02:51:38;;;;;;;0.70;0.70;;;;;;;;;;5059242;27;88974;-60
2023/01/03 02:54:07;;;;;;;0.93;0.83;;;;;;;;;;5060084;27;87429;-59
2023/01/03 02:56:36;;;;;;;0.83;0.77;;;;;;;;;;5053156;27;86999;-60
2023/01/03 02:59:06;;;;;;;0.50;0.50;;;;;;;;;;5040396;28;89231;-60
2023/01/03 03:01:34;;;;;;;0.50;0.50;;;;;;;;;;5043198;27;89827;-60
2023/01/03 03:04:05;;;;;;;0.50;0.50;;;;;;;;;;5054650;27;87016;-60
2023/01/03 03:06:35;;;;;;;0.70;0.70;;;;;;;;;;5041480;27;87056;-60
2023/01/03 03:09:03;;;;;;;1.00;0.80;;;;;;;;;;5057036;27;88135;-60
2023/01/03 03:14:18;;;;;;;0.70;0.70;;;;;;;;;;5050330;27;87055;-60
2023/01/03 03:16:50;;;;;;;1.13;0.50;;;;;;;;;;5048449;27;86232;-60
2023/01/03 03:24:50;;;;;;;0.60;0.60;;;;;;;;;;5041970;27;88027;-60
2023/01/03 03:30:06;;;;;;;0.67;0.50;;;;;;;;;;5053325;27;88992;-60
2023/01/03 03:32:35;;;;;;;0.40;0.40;;;;;;;;;;5052853;27;88932;-60
2023/01/03 03:35:05;;;;;;;0.90;0.60;;;;;;;;;;5044636;27;87132;-60
2023/01/03 03:37:33;;;;;;;0.40;0.40;;;;;;;;;;5061037;27;87028;-60
2023/01/03 03:45:35;;;;;;;0.50;0.50;;;;;;;;;;5050718;27;87060;-60
2023/01/03 03:48:05;;;;;;;0.87;0.60;;;;;;;;;;5041048;28;86928;-60
2023/01/03 03:50:35;;;;;;;0.50;0.50;;;;;;;;;;5048411;27;90121;-60
2023/01/03 03:53:06;;;;;;;0.77;0.67;;;;;;;;;;5054162;27;89800;-60
2023/01/03 03:55:34;;;;;;;0.70;0.70;;;;;;;;;;5049664;27;87075;-60
2023/01/03 03:58:03;;;;;;;0.43;0.43;;;;;;;;;;5041777;27;87123;-60
2023/01/03 04:00:33;;;;;;;0.77;0.77;;;;;;;;;;5040296;28;89115;-60
2023/01/03 04:03:02;;;;;;;0.53;0.53;;;;;;;;;;5056612;27;88531;-60
2023/01/03 04:05:31;;;;;;;1.00;0.90;;;;;;;;;;5056910;27;87068;-61
2023/01/03 04:08:01;;;;;;;0.73;0.73;;;;;;;;;;5044570;27;86260;-60
2023/01/03 04:10:29;;;;;;;0.40;0.40;;;;;;;;;;5052124;27;88860;-60
2023/01/03 04:13:04;;;;;;;1.93;0.67;;;;;;;;;;5060342;27;88011;-61
2023/01/03 04:15:33;;;;;;;0.97;0.63;;;;;;;;;;5060671;27;87989;-61
2023/01/03 04:18:01;;;;;;;0.60;0.60;;;;;;;;;;5059108;27;87216;-60
2023/01/03 04:20:30;;;;;;;0.40;0.33;;;;;;;;;;5050995;27;88197;-60
2023/01/03 04:22:58;;;;;;;1.97;0.87;;;;;;;;;;5060048;27;88987;-60
2023/01/03 04:25:28;;;;;;;1.93;0.83;;;;;;;;;;5060813;27;87076;-61
2023/01/03 04:27:56;;;;;;;0.60;0.60;;;;;;;;;;5059089;27;87123;-60
2023/01/03 04:30:24;;;;;;;1.10;0.83;;;;;;;;;;5059980;27;89154;-60
2023/01/03 04:32:52;;;;;;;0.97;0.63;;;;;;;;;;5055985;27;87832;-60
2023/01/03 04:35:21;;;;;;;0.80;0.80;;;;;;;;;;5062958;27;87067;-60
2023/01/03 04:37:49;;;;;;;0.97;0.53;;;;;;;;;;5048153;27;87763;-60
2023/01/03 04:40:18;;;;;;;1.93;0.60;;;;;;;;;;5055396;27;89214;-60
2023/01/03 04:45:33;;;;;;;1.00;0.90;;;;;;;;;;5061865;27;86918;-60
2023/01/03 04:48:02;;;;;;;0.73;0.70;;;;;;;;;;5057387;27;87100;-60
2023/01/03 04:50:30;;;;;;;0.50;0.50;;;;;;;;;;5047819;27;86928;-60
2023/01/03 04:52:59;;;;;;;1.37;0.77;;;;;;;;;;5062040;27;87838;-60
2023/01/03 04:55:27;;;;;;;0.97;0.80;;;;;;;;;;5045995;27;87040;-60
2023/01/03 04:57:56;;;;;;;0.60;0.60;;;;;;;;;;5061768;27;86255;-59
2023/01/03 05:00:25;;;;;;;0.77;0.60;;;;;;;;;;5062456;27;88109;-60
2023/01/03 05:02:53;;;;;;;0.73;0.73;;;;;;;;;;5063132;27;91885;-60
2023/01/03 05:05:21;;;;;;;0.63;0.63;;;;;;;;;;5059071;27;88721;-60
2023/01/03 05:07:50;;;;;;;0.87;0.80;;;;;;;;;;5058956;27;87697;-60
2023/01/03 05:10:18;;;;;;;0.50;0.50;;;;;;;;;;5060320;27;87960;-60
2023/01/03 05:12:58;;;;;;;0.70;0.70;;;;;;;;;;5042989;27;87696;-60
2023/01/03 05:15:28;;;;;;;0.73;0.60;;;;;;;;;;5044400;27;87030;-60
2023/01/03 05:17:56;;;;;;;0.70;0.70;;;;;;;;;;5056851;27;87108;-61
2023/01/03 05:25:58;;;;;;;0.67;0.67;;;;;;;;;;5057849;27;87112;-60
2023/01/03 05:28:27;;;;;;;0.80;0.80;;;;;;;;;;5042830;27;86997;-60
2023/01/03 05:30:56;;;;;;;0.80;0.73;;;;;;;;;;5051436;27;90150;-60
2023/01/03 05:33:25;;;;;;;0.80;0.80;;;;;;;;;;5049803;27;88906;-60
2023/01/03 05:35:53;;;;;;;1.97;0.67;;;;;;;;;;5042901;27;87150;-60
2023/01/03 05:38:22;;;;;;;0.87;0.70;;;;;;;;;;5058821;27;87119;-60
2023/01/03 05:40:50;;;;;;;0.63;0.60;;;;;;;;;;5062077;27;89272;-60
2023/01/03 05:43:19;;;;;;;1.43;1.00;;;;;;;;;;5047752;27;88988;-60
2023/01/03 05:45:50;;;;;;;0.70;0.70;;;;;;;;;;5059024;27;87012;-61
2023/01/03 05:48:20;;;;;;;1.90;0.70;;;;;;;;;;5042735;28;86351;-60
2023/01/03 05:50:48;;;;;;;0.67;0.63;;;;;;;;;;5042474;28;89692;-60
2023/01/03 05:53:17;;;;;;;0.83;0.70;;;;;;;;;;5041895;28;89014;-60
2023/01/03 05:55:45;;;;;;;0.67;0.60;;;;;;;;;;5041716;28;87997;-60
2023/01/03 05:58:15;;;;;;;0.80;0.70;;;;;;;;;;5041555;28;87121;-60
2023/01/03 06:00:43;;;;;;;0.70;0.60;;;;;;;;;;5041761;28;88287;-60
2023/01/03 06:03:11;;;;;;;1.03;0.80;;;;;;;;;;5043586;27;88005;-60
2023/01/03 06:05:41;;;;;;;0.57;0.57;;;;;;;;;;5042151;27;87071;-60
2023/01/03 06:08:17;;;;;;;0.63;0.63;;;;;;;;;;5044559;27;87169;-60
2023/01/03 06:10:45;;;;;;;1.20;0.70;;;;;;;;;;5060446;27;89272;-60
2023/01/03 06:13:14;;;;;;;0.60;0.60;;;;;;;;;;5050735;27;87737;-61
2023/01/03 06:17:53;;;;;;;3.30;1.13;;;;;;;;;;5042211;27;87170;-60
2023/01/03 06:18:29;;;;;;;0.93;0.93;;;;;;;;;;5042208;28;87123;-60
2023/01/03 06:20:59;;;;;;;0.77;0.70;;;;;;;;;;5041765;27;90077;-60
2023/01/03 06:23:28;;;;;;;0.70;0.70;;;;;;;;;;5049936;27;89868;-60
2023/01/03 06:25:56;;;;;;;0.80;0.80;;;;;;;;;;5055274;27;87157;-60
2023/01/03 06:28:24;;;;;;;0.80;0.73;;;;;;;;;;5054348;27;87075;-60
2023/01/03 06:30:52;;;;;;;5.10;0.70;;;;;;;;;;5050003;27;89130;-60
2023/01/03 06:33:21;;;;;;;0.77;0.77;;;;;;;;;;5046085;27;88696;-60
2023/01/03 06:35:49;;;;;;;1.47;1.00;;;;;;;;;;5062484;27;87046;-60
2023/01/03 06:38:19;;;;;;;0.60;0.60;;;;;;;;;;5062178;27;86386;-60
2023/01/03 06:40:48;;;;;;;0.80;0.80;;;;;;;;;;5061906;27;88107;-60
2023/01/03 06:43:16;;;;;;;0.57;0.57;;;;;;;;;;5061499;27;88251;-60
2023/01/03 06:54:03;;;;;;;2.10;0.70;;;;;;;;;;5059697;27;88894;-61
2023/01/03 06:56:31;;;;;;;3.17;0.67;;;;;;;;;;5044542;27;87139;-60
2023/01/03 06:59:00;;;;;;;0.73;0.70;;;;;;;;;;5061616;27;87046;-60
2023/01/03 07:01:28;;;;;;;0.57;0.57;;;;;;;;;;5060060;27;89331;-60
2023/01/03 07:03:57;;;;;;;1.87;1.00;;;;;;;;;;5059735;27;87445;-60
2023/01/03 07:06:26;;;;;;;1.53;1.07;;;;;;;;;;5061635;27;87131;-60
2023/01/03 07:08:55;;;;;;;0.80;0.80;;;;;;;;;;5059841;27;87354;-59
2023/01/03 07:11:25;;;;;;;0.70;0.70;;;;;;;;;;5045810;27;90072;-60
2023/01/03 07:13:58;;;;;;;1.00;0.90;;;;;;;;;;5042752;27;87456;-61
2023/01/03 07:16:28;;;;;;;0.97;0.80;;;;;;;;;;5059759;27;87285;-60
2023/01/03 07:18:56;;;;;;;1.27;0.70;;;;;;;;;;5061024;27;87181;-60
2023/01/03 07:21:24;;;;;;;0.50;0.50;;;;;;;;;;5061336;27;89164;-60
2023/01/03 07:23:53;;;;;;;0.70;0.50;;;;;;;;;;5059299;27;88850;-60
2023/01/03 07:26:23;;;;;;;0.83;0.77;;;;;;;;;;5061258;27;87738;-59
2023/01/03 07:28:52;;;;;;;1.13;0.90;;;;;;;;;;5061302;27;86376;-60
2023/01/03 07:31:21;;;;;;;0.90;0.80;;;;;;;;;;5042157;27;89280;-60
2023/01/03 07:33:49;;;;;;;2.10;0.70;;;;;;;;;;5053739;27;88805;-60
2023/01/03 07:36:18;;;;;;;0.70;0.70;;;;;;;;;;5058028;27;88573;-60
2023/01/03 07:38:46;;;;;;;2.23;0.77;;;;;;;;;;5059520;27;87160;-60
2023/01/03 07:41:15;;;;;;;3.30;1.10;;;;;;;;;;5059318;27;89150;-60
2023/01/03 07:43:42;;;;;;;1.07;0.97;;;;;;;;;;5058926;27;87790;-59
2023/01/03 07:46:12;;;;;;;0.83;0.57;;;;;;;;;;5057530;27;87126;-59
2023/01/03 07:48:41;;;;;;;1.23;0.70;;;;;;;;;;5046422;27;87433;-60
2023/01/03 07:51:09;;;;;;;0.63;0.63;;;;;;;;;;5043416;27;89298;-59
2023/01/03 07:53:38;;;;;;;0.67;0.67;;;;;;;;;;5041928;27;87947;-60
2023/01/03 07:56:07;;;;;;;0.97;0.80;;;;;;;;;;5041795;27;87074;-60
2023/01/03 07:58:40;;;;;;;0.50;0.50;;;;;;;;;;5048848;27;87051;-60
2023/01/03 08:01:09;;;;;;;1.23;0.70;;;;;;;;;;5052566;27;90222;-60
2023/01/03 08:03:39;;;;;;;0.73;0.73;;;;;;;;;;5041031;27;89968;-60
2023/01/03 08:06:08;;;;;;;1.33;0.70;;;;;;;;;;5039772;27;87243;-60
2023/01/03 08:08:37;;;;;;;1.57;0.87;;;;;;;;;;5045509;27;88645;-60
2023/01/03 08:13:50;;;;;;;0.87;0.87;;;;;;;;;;5018342;27;88945;-60
2023/01/03 08:16:19;;;;;;;0.83;0.70;;;;;;;;;;5055695;27;87081;-61
2023/01/03 08:18:49;;;;;;;1.87;0.90;;;;;;;;;;5049399;27;86408;-60
2023/01/03 08:21:17;;;;;;;1.03;0.77;;;;;;;;;;5059964;27;89297;-60
2023/01/03 08:23:47;;;;;;;0.70;0.70;;;;;;;;;;5043524;27;87950;-60
2023/01/03 08:26:16;;;;;;;0.67;0.67;;;;;;;;;;5040315;28;88003;-60
2023/01/03 08:28:45;;;;;;;1.30;0.80;;;;;;;;;;5041211;27;87075;-60
2023/01/03 08:31:14;;;;;;;0.60;0.60;;;;;;;;;;5040645;27;89108;-60
2023/01/03 08:33:43;;;;;;;1.20;1.10;;;;;;;;;;5041381;27;88880;-60
2023/01/03 08:36:13;;;;;;;0.50;0.50;;;;;;;;;;5040585;27;86954;-60
2023/01/03 08:38:42;;;;;;;1.50;0.83;;;;;;;;;;5059287;27;87209;-60
2023/01/03 08:41:10;;;;;;;0.57;0.57;;;;;;;;;;5060238;27;87943;-59
2023/01/03 08:43:39;;;;;;;0.67;0.67;;;;;;;;;;5058893;27;87955;-60
2023/01/03 08:46:07;;;;;;;1.07;0.80;;;;;;;;;;5047220;27;87057;-60
2023/01/03 08:48:36;;;;;;;0.90;0.67;;;;;;;;;;5050187;27;89252;-60
2023/01/03 08:51:04;;;;;;;1.63;0.73;;;;;;;;;;5058020;27;90028;-60
2023/01/03 08:53:34;;;;;;;0.60;0.60;;;;;;;;;;5042377;27;87027;-60
2023/01/03 08:56:02;;;;;;;0.67;0.60;;;;;;;;;;5040173;27;87000;-60
2023/01/03 08:58:31;;;;;;;0.60;0.60;;;;;;;;;;5040316;27;87262;-60
2023/01/03 09:01:01;;;;;;;0.77;0.77;;;;;;;;;;5040239;27;89255;-60
2023/01/03 09:03:29;;;;;;;2.17;0.60;;;;;;;;;;5050034;27;87831;-60
2023/01/03 09:06:00;;;;;;;2.17;0.87;;;;;;;;;;5058271;27;87007;-60
2023/01/03 09:08:30;;;;;;;1.17;0.80;;;;;;;;;;5057679;27;86358;-60
2023/01/03 09:11:04;;;;;;;0.70;0.70;;;;;;;;;;5059939;27;88312;-60
2023/01/03 09:13:32;;;;;;;0.60;0.53;;;;;;;;;;5058244;27;87596;-60
2023/01/03 09:16:01;;;;;;;0.47;0.47;;;;;;;;;;5049919;27;89629;-60
2023/01/03 09:18:29;;;;;;;0.83;0.80;;;;;;;;;;5044643;27;87013;-60
2023/01/03 09:20:58;;;;;;;1.00;1.00;;;;;;;;;;5062978;27;88202;-60
2023/01/03 09:23:26;;;;;;;1.37;1.00;;;;;;;;;;5061290;27;87856;-60
2023/01/03 09:25:54;;;;;;;0.83;0.83;;;;;;;;;;5062137;27;87034;-59
2023/01/03 09:28:24;;;;;;;0.80;0.70;;;;;;;;;;5060578;27;87351;-60
2023/01/03 09:30:53;;;;;;;1.10;0.80;;;;;;;;;;5043789;27;87924;-60
2023/01/03 09:33:21;;;;;;;0.90;0.90;;;;;;;;;;5043065;27;87731;-60
2023/01/03 09:35:49;;;;;;;2.80;1.00;;;;;;;;;;5049117;27;87060;-61
2023/01/03 09:38:18;;;;;;;1.03;0.67;;;;;;;;;;5048703;27;87042;-60
2023/01/03 09:40:46;;;;;;;0.60;0.60;;;;;;;;;;5062011;27;88857;-60
2023/01/03 09:43:15;;;;;;;4.00;0.80;;;;;;;;;;5052895;27;88667;-60
2023/01/03 09:45:57;;;;;;;0.73;0.50;;;;;;;;;;5053393;27;87647;-60
2023/01/03 09:48:26;;;;;;;3.90;1.07;;;;;;;;;;5059915;27;87001;-60
2023/01/03 09:50:54;;;;;;;1.90;1.17;;;;;;;;;;5057464;27;89244;-60
2023/01/03 10:05:11;;;;;;;0.40;0.40;;;;;;;;;;5047188;27;89004;-60
2023/01/03 10:07:44;;;;;;;0.60;0.60;;;;;;;;;;5041919;27;88037;-60
2023/01/03 10:10:15;;;;;;;0.60;0.60;;;;;;;;;;5041880;28;87043;-60
2023/01/03 10:12:45;;;;;;;0.77;0.77;;;;;;;;;;5041453;28;88932;-60
2023/01/03 10:15:16;;;;;;;1.43;0.97;;;;;;;;;;5042034;27;87778;-60
2023/01/03 10:17:48;;;;;;;2.53;0.80;;;;;;;;;;5060105;27;87112;-60
2023/01/03 10:20:25;;;;;;;3.83;0.63;;;;;;;;;;5065581;27;87073;-60
2023/01/03 10:23:00;;;;;;;1.70;0.80;;;;;;;;;;5053093;27;88189;-59
2023/01/03 10:25:28;;;;;;;1.67;0.60;;;;;;;;;;5051100;27;87753;-60
2023/01/03 10:28:01;;;;;;;0.50;0.50;;;;;;;;;;5059812;27;87105;-60
2023/01/03 10:30:33;;;;;;;0.80;0.63;;;;;;;;;;5058770;27;87168;-60
2023/01/03 10:33:12;;;;;;;0.93;0.67;;;;;;;;;;5061837;27;89059;-60
2023/01/03 10:35:40;;;;;;;0.50;0.40;;;;;;;;;;5061449;27;89636;-59
2023/01/03 10:38:09;;;;;;;0.70;0.70;;;;;;;;;;5054553;27;88229;-59
2023/01/03 10:40:37;;;;;;;0.80;0.60;;;;;;;;;;5051531;27;87074;-59
2023/01/03 10:43:10;;;;;;;0.60;0.60;;;;;;;;;;5061945;27;88178;-59
2023/01/03 10:45:50;;;;;;;0.73;0.70;;;;;;;;;;5061494;27;87899;-59
2023/01/03 10:48:19;;;;;;;1.23;0.47;;;;;;;;;;5061270;27;86930;-60
2023/01/03 10:50:49;;;;;;;1.37;1.27;;;;;;;;;;5045901;27;86404;-59
2023/01/03 10:53:18;;;;;;;0.93;0.70;;;;;;;;;;5057537;27;89145;-59
2023/01/03 10:55:47;;;;;;;0.60;0.60;;;;;;;;;;5059503;27;87732;-59
2023/01/03 10:58:17;;;;;;;0.40;0.40;;;;;;;;;;5042616;27;87880;-59
2023/01/03 11:00:45;;;;;;;0.97;0.60;;;;;;;;;;5052319;27;87144;-60
2023/01/03 11:03:15;;;;;;;1.23;0.80;;;;;;;;;;5061680;27;89317;-58
2023/01/03 11:05:45;;;;;;;0.93;0.60;;;;;;;;;;5060039;27;87651;-58
2023/01/03 11:08:15;;;;;;;0.70;0.70;;;;;;;;;;5047498;27;86986;-58
2023/01/03 11:10:53;;;;;;;0.63;0.63;;;;;;;;;;5060146;27;87019;-57
2023/01/03 11:13:23;;;;;;;0.60;0.60;;;;;;;;;;5045892;27;88113;-58
2023/01/03 11:15:53;;;;;;;0.77;0.70;;;;;;;;;;5044152;27;87796;-57
2023/01/03 11:18:22;;;;;;;1.13;0.60;;;;;;;;;;5060812;27;87151;-58
2023/01/03 11:20:53;;;;;;;2.60;1.00;;;;;;;;;;5056258;27;87109;-57
2023/01/03 11:23:25;;;;;;;2.03;0.80;;;;;;;;;;5042766;27;90125;-57
2023/01/03 11:25:56;;;;;;;1.53;0.77;;;;;;;;;;5046350;27;89778;-57
2023/01/03 11:28:42;;;;;;;1.67;0.70;;;;;;;;;;5042338;27;87941;-57
2023/01/03 11:31:12;;;;;;;0.53;0.53;;;;;;;;;;5037052;27;87136;-57
2023/01/03 11:33:45;;;;;;;1.03;0.90;;;;;;;;;;5059998;27;89173;-57
2023/01/03 11:36:19;;;;;;;0.47;0.47;;;;;;;;;;5058798;27;88772;-57
2023/01/03 11:38:53;;;;;;;1.13;0.70;;;;;;;;;;5051411;27;87959;-57
2023/01/03 11:41:28;;;;;;;0.90;0.47;;;;;;;;;;5041457;27;86240;-57
2023/01/03 11:44:13;;;;;;;2.63;0.67;;;;;;;;;;5054150;27;88200;-59
2023/01/03 11:46:45;;;;;;;0.50;0.50;;;;;;;;;;5066974;27;87104;-60
2023/01/03 11:49:19;;;;;;;1.27;0.73;;;;;;;;;;5072294;27;89689;-58
2023/01/03 11:51:52;;;;;;;0.77;0.77;;;;;;;;;;5076578;27;87071;-58
2023/01/03 11:54:28;;;;;;;0.50;0.50;;;;;;;;;;5060910;27;89175;-58
2023/01/03 11:56:56;;;;;;;1.23;0.57;;;;;;;;;;5061010;27;88856;-59
2023/01/03 11:59:32;;;;;;;0.97;0.87;;;;;;;;;;5064091;27;87094;-56
2023/01/03 12:02:15;;;;;;;0.97;0.97;;;;;;;;;;5061100;27;87186;-59
2023/01/03 12:04:45;;;;;;;2.63;0.90;;;;;;;;;;5054046;27;89151;-59
2023/01/03 12:07:16;;;;;;;0.60;0.60;;;;;;;;;;5061196;27;88844;-57
2023/01/03 12:10:06;;;;;;;4.03;0.70;;;;;;;;;;5060968;27;87077;-57
2023/01/03 12:12:42;;;;;;;1.10;0.80;;;;;;;;;;5061131;27;86985;-59
2023/01/03 12:15:13;;;;;;;2.80;0.70;;;;;;;;;;5060491;27;88967;-56
2023/01/03 12:17:42;;;;;;;4.97;0.67;;;;;;;;;;5059872;27;88869;-57
2023/01/03 12:20:11;;;;;;;0.93;0.60;;;;;;;;;;5060283;27;87094;-57
2023/01/03 12:22:42;;;;;;;3.40;0.63;;;;;;;;;;5060535;27;87088;-59
2023/01/03 12:25:15;;;;;;;0.50;0.50;;;;;;;;;;5060110;27;89280;-59
2023/01/03 12:27:45;;;;;;;0.50;0.50;;;;;;;;;;5060519;27;87128;-57
2023/01/03 12:30:17;;;;;;;2.60;0.60;;;;;;;;;;5060011;27;87048;-57
2023/01/03 12:32:47;;;;;;;1.70;0.73;;;;;;;;;;5061342;27;86848;-57
2023/01/03 12:35:18;;;;;;;0.87;0.50;;;;;;;;;;5060352;27;89100;-57
2023/01/03 12:37:49;;;;;;;1.10;0.50;;;;;;;;;;5059930;27;87819;-57
2023/01/03 12:40:20;;;;;;;5.00;1.53;;;;;;;;;;5060024;27;88080;-59
2023/01/03 12:42:53;;;;;;;1.40;0.60;;;;;;;;;;5049575;27;87160;-59
2023/01/03 12:45:26;;;;;;;1.70;0.40;;;;;;;;;;5040644;27;87915;-58
2023/01/03 12:48:02;;;;;;;3.10;0.97;;;;;;;;;;5040129;28;88823;-57
2023/01/03 12:50:31;;;;;;;5.17;0.90;;;;;;;;;;5040552;28;86924;-57
2023/01/03 12:53:02;;;;;;;6.60;1.00;;;;;;;;;;5042858;28;87499;-57
2023/01/03 12:55:33;;;;;;;4.40;0.67;;;;;;;;;;5043212;28;88051;-58
2023/01/03 12:58:06;;;;;;;4.73;0.67;;;;;;;;;;5043699;28;88884;-57
2023/01/03 13:00:39;;;;;;;0.60;0.60;;;;;;;;;;5043740;27;87017;-57
2023/01/03 13:03:07;;;;;;;4.57;1.00;;;;;;;;;;5043250;28;87058;-57
2023/01/03 13:05:37;;;;;;;5.77;1.07;;;;;;;;;;5042086;28;89055;-57
2023/01/03 13:08:08;;;;;;;2.37;0.70;;;;;;;;;;5043394;27;88876;-59
2023/01/03 13:10:38;;;;;;;0.77;0.60;;;;;;;;;;5043788;27;88268;-57
2023/01/03 13:13:07;;;;;;;0.47;0.47;;;;;;;;;;5043876;27;87072;-57
2023/01/03 13:15:35;;;;;;;0.63;0.63;;;;;;;;;;5043304;28;88068;-57
2023/01/03 13:18:18;;;;;;;2.63;0.70;;;;;;;;;;5043150;28;89185;-59
2023/01/03 13:20:47;;;;;;;2.77;0.93;;;;;;;;;;5065015;27;87080;-57
2023/01/03 13:23:30;;;;;;;5.23;1.20;;;;;;;;;;5063652;27;86411;-57
2023/01/03 13:26:18;;;;;;;2.73;0.57;;;;;;;;;;5063224;27;89293;-57
2023/01/03 13:28:46;;;;;;;2.63;0.70;;;;;;;;;;5042924;27;87614;-57
2023/01/03 13:31:46;;;;;;;0.83;0.67;;;;;;;;;;5042902;27;87923;-58
2023/01/03 13:34:16;;;;;;;2.57;0.90;;;;;;;;;;5043057;28;87156;-57
2023/01/03 13:37:03;;;;;;;2.00;0.70;;;;;;;;;;5049080;27;88299;-58
2023/01/03 13:39:35;;;;;;;1.90;0.67;;;;;;;;;;5062762;27;87922;-57
2023/01/03 13:42:03;;;;;;;3.00;0.70;;;;;;;;;;5063065;27;86990;-57
2023/01/03 13:44:31;;;;;;;1.57;0.47;;;;;;;;;;5062836;27;86990;-57
2023/01/03 13:47:00;;;;;;;1.13;0.90;;;;;;;;;;5062827;27;89348;-58
2023/01/03 13:49:28;;;;;;;5.33;0.90;;;;;;;;;;5062998;27;86574;-57
2023/01/03 13:51:57;;;;;;;0.90;0.40;;;;;;;;;;5058967;27;87150;-58
2023/01/03 13:54:36;;;;;;;10.83;0.97;;;;;;;;;;5062315;27;87089;-58
2023/01/03 13:57:05;;;;;;;3.37;0.73;;;;;;;;;;5067879;27;90123;-58
2023/01/03 13:59:41;;;;;;;4.57;0.87;;;;;;;;;;5083260;27;88827;-58
2023/01/03 14:02:36;;;;;;;5.87;0.90;;;;;;;;;;5082832;27;86914;-57
2023/01/03 14:05:15;;;;;;;9.90;1.60;;;;;;;;;;5035673;27;87183;-58
2023/01/03 14:08:04;;;;;;;0.57;0.57;;;;;;;;;;5083149;27;89284;-57
2023/01/03 14:10:38;;;;;;;8.07;1.20;;;;;;;;;;5033314;27;87798;-57
2023/01/03 14:13:20;;;;;;;3.00;1.27;;;;;;;;;;5062896;27;87137;-59
2023/01/03 14:15:48;;;;;;;5.07;1.00;;;;;;;;;;5063876;27;86627;-59
2023/01/03 14:18:19;;;;;;;7.27;1.40;;;;;;;;;;5062571;27;89014;-57
2023/01/03 14:20:48;;;;;;;9.13;1.20;;;;;;;;;;5062451;27;87763;-58
2023/01/03 14:23:17;;;;;;;3.97;1.53;;;;;;;;;;5062058;27;88037;-56
2023/01/03 14:26:11;;;;;;;4.30;1.27;;;;;;;;;;5058187;27;86978;-56
2023/01/03 14:28:39;;;;;;;9.13;1.67;;;;;;;;;;5076488;27;89102;-56
2023/01/03 14:31:08;;;;;;;5.40;1.40;;;;;;;;;;5081851;27;87748;-55
2023/01/03 14:33:37;;;;;;;8.27;1.33;;;;;;;;;;5062630;27;87176;-57
2023/01/03 14:36:07;;;;;;;6.47;1.50;;;;;;;;;;5057343;27;87148;-56
2023/01/03 14:38:35;;;;;;;33.17;11.23;;;;;;;;;;5074310;27;89134;-54
2023/01/03 14:41:04;;;;;;;142.23;36.03;;;;;;;;;;5082351;27;88714;-57
2023/01/03 14:43:34;;;;;;;114.80;36.97;;;;;;;;;;5062602;27;87078;-57
2023/01/03 14:46:04;;;;;;;110.47;34.50;;;;;;;;;;5061559;27;87090;-54
2023/01/03 14:48:32;;;;;;;102.83;31.00;;;;;;;;;;5060369;27;89493;-57
2023/01/03 14:51:01;;;;;;;87.40;27.27;;;;;;;;;;5061173;27;89626;-57
2023/01/03 14:53:29;;;;;;;81.17;27.27;;;;;;;;;;5061020;27;87076;-57
2023/01/03 14:55:58;;;;;;;69.33;22.77;;;;;;;;;;5061484;27;86971;-57
2023/01/03 14:58:34;;;;;;;59.70;19.03;;;;;;;;;;5061394;27;88244;-56
2023/01/03 15:01:03;;;;;;;55.53;18.40;;;;;;;;;;5060620;27;88916;-57
2023/01/03 15:03:33;;;;;;;52.70;17.70;;;;;;;;;;5061489;27;87061;-57
2023/01/03 15:06:02;;;;;;;50.10;16.03;;;;;;;;;;5063807;27;86503;-56
2023/01/03 15:08:30;;;;;;;40.67;13.80;;;;;;;;;;5081210;27;89217;-57
2023/01/03 15:10:59;;;;;;;44.83;14.33;;;;;;;;;;5081553;27;87098;-56
2023/01/03 15:13:30;;;;;;;42.70;13.50;;;;;;;;;;5080856;27;88004;-56
2023/01/03 15:16:00;;;;;;;43.30;12.97;;;;;;;;;;5081282;27;87095;-54
2023/01/03 15:18:29;;;;;;;33.53;11.33;;;;;;;;;;5071795;27;89332;-55
2023/01/03 15:20:58;;;;;;;34.50;10.93;;;;;;;;;;5058184;27;88013;-56
2023/01/03 15:23:44;;;;;;;28.63;10.60;;;;;;;;;;5045280;27;87091;-56
2023/01/03 15:26:19;;;;;;;32.63;10.97;;;;;;;;;;5049245;27;87136;-56
2023/01/03 15:28:51;;;;;;;26.60;8.50;;;;;;;;;;5079120;27;88221;-56
2023/01/03 15:31:28;;;;;;;27.27;8.00;;;;;;;;;;5076701;27;88897;-56
2023/01/03 15:34:00;;;;;;;26.67;7.97;;;;;;;;;;5061208;27;86960;-55
2023/01/03 15:36:29;;;;;;;24.50;8.80;;;;;;;;;;5061158;27;87110;-57
2023/01/03 15:38:58;;;;;;;24.63;7.43;;;;;;;;;;5057086;27;88970;-55
2023/01/03 15:44:14;;;;;;;22.17;7.07;;;;;;;;;;5042242;27;87064;-57
2023/01/03 15:46:44;;;;;;;19.03;6.83;;;;;;;;;;5060203;27;87086;-56
2023/01/03 15:49:12;;;;;;;20.87;7.47;;;;;;;;;;5061625;27;88843;-57
2023/01/03 15:51:41;;;;;;;23.30;6.70;;;;;;;;;;5061205;27;88840;-56
2023/01/03 15:54:11;;;;;;;18.67;5.50;;;;;;;;;;5061140;27;86992;-56
2023/01/03 15:56:44;;;;;;;13.53;5.83;;;;;;;;;;5061123;27;86321;-56